Latest Weather Observations for Nullo Mountain

IDN60801

Issued at 7:05 pm EDT Wednesday 22 October 2014 (issued every 30 minutes, with the page automatically refreshed every 10 minutes)

About weather observations | Map of weather stations | Latest weather observations for NSW | Other Formats
Station Details ID: 062100 Name: NULLO MOUNTAIN AWS Lat: -32.72 Lon: 150.23 Height: 1130.0 m
Data from the previous 72 hours. | See also: Recent months at Nullo Mountain
Date/Time
EDT
Temp
°C
App
Temp
°C
Dew
Point
Rel
Hum
%
Delta-T
°C
Wind Press
QNH
hPa
Press
MSL
hPa
Rain
since 9 am
mm
Dir
 
Spd
km/h
Gust
km/h
Spd
kts
Gust
kts
22/07:00pm 17.6 16.6 8.7 56 4.9 N 4 6 2 3 - - 0.0
22/06:30pm 19.5 18.5 8.8 50 5.9 WSW 4 7 2 4 - - 0.0
22/06:00pm 20.0 18.6 8.7 48 6.3 W 6 11 3 6 - - 0.0
22/05:30pm 20.8 19.2 8.8 46 6.7 W 7 15 4 8 - - 0.0
22/05:00pm 20.7 19.1 8.7 46 6.7 W 7 17 4 9 - - 0.0
22/04:30pm 21.2 20.0 10.4 50 6.2 WSW 7 15 4 8 - - 0.0
22/04:00pm 20.2 18.7 9.2 49 6.2 SW 7 17 4 9 - - 0.0
22/03:30pm 19.9 19.1 9.5 51 5.8 SE 4 7 2 4 - - 0.0
22/03:00pm 20.0 18.5 10.4 54 5.5 SW 9 17 5 9 - - 0.0
22/02:30pm 18.6 16.4 7.7 49 5.9 SW 9 15 5 8 - - 0.0
22/02:00pm 19.1 16.8 7.5 47 6.3 SW 9 17 5 9 - - 0.0
22/01:30pm 17.9 15.4 6.4 47 6.0 SW 9 17 5 9 - - 0.0
22/01:00pm 17.3 15.4 7.6 53 5.2 SSW 7 19 4 10 - - 0.0
22/12:30pm 16.7 15.1 8.9 60 4.3 WSW 7 15 4 8 - - 0.0
22/12:00pm 15.6 13.9 7.6 59 4.2 WSW 6 15 3 8 - - 0.0
22/11:30am 15.0 13.3 8.5 65 3.5 NW 7 11 4 6 - - 0.0
22/11:00am 14.1 12.4 7.4 64 3.5 WSW 6 11 3 6 - - 0.0
22/10:30am 12.2 10.7 6.7 69 2.8 N 4 7 2 4 - - 0.0
22/10:00am 10.8 8.8 6.4 74 2.2 ESE 6 9 3 5 - - 0.0
22/09:30am 9.8 7.1 5.8 76 2.0 E 9 15 5 8 - - 0.0
22/09:00am 9.7 6.7 6.2 79 1.7 E 11 17 6 9 - - 0.0
22/08:30am 8.8 5.3 5.4 79 1.6 E 13 19 7 10 - - 0.0
22/08:00am 7.8 3.4 4.9 82 1.4 E 17 28 9 15 - - 0.0
22/07:30am 7.3 2.6 5.0 85 1.1 E 19 26 10 14 - - 0.0
22/07:00am 6.2 1.2 4.4 88 0.8 E 20 26 11 14 - - 0.0
22/06:30am 4.9 -0.3 3.7 92 0.5 E 20 26 11 14 - - 0.0
22/06:00am 4.6 -0.6 3.6 93 0.4 E 20 26 11 14 - - 0.0
22/05:30am 4.2 -0.8 3.5 95 0.3 E 19 22 10 12 - - 0.0
22/05:00am 4.2 -0.8 3.5 95 0.3 E 19 24 10 13 - - 0.0
22/04:30am 4.5 -1.0 3.8 95 0.3 E 22 30 12 16 - - 0.0
22/04:00am 5.2 0.3 4.9 98 0.1 E 20 28 11 15 - - 0.0
22/03:30am 5.3 0.3 4.7 96 0.3 E 20 28 11 15 - - 0.0
22/03:00am 5.5 0.7 5.4 99 0.0 E 20 30 11 16 - - 0.0
22/02:30am 5.6 0.7 5.3 98 0.1 E 20 28 11 15 - - 0.0
22/02:00am 5.6 0.3 5.2 97 0.2 E 22 33 12 18 - - 0.0
22/01:30am 5.5 0.5 4.8 95 0.3 E 20 30 11 16 - - 0.0
22/01:00am 5.7 0.4 4.8 94 0.4 E 22 30 12 16 - - 0.0
22/12:30am 6.1 1.3 5.5 96 0.3 E 20 32 11 17 - - 0.0
22/12:00am 6.2 1.7 5.9 98 0.1 E 19 26 10 14 - - 0.0
 
Date/Time
EDT
Temp
°C
App
Temp
°C
Dew
Point
Rel
Hum
%
Delta-T
°C
Wind Press
QNH
hPa
Press
MSL
hPa
Rain
since 9 am
mm
Dir
 
Spd
km/h
Gust
km/h
Spd
kts
Gust
kts
21/11:30pm 6.3 1.6 6.2 99 0.0 E 20 28 11 15 - - 0.0
21/11:00pm 6.5 2.4 6.4 99 0.0 E 17 24 9 13 - - 0.0
21/10:30pm 6.7 2.3 6.4 98 0.1 E 19 26 10 14 - - 0.0
21/10:00pm 6.8 2.7 6.4 97 0.2 E 17 28 9 15 - - 0.0
21/09:30pm 7.0 2.4 6.6 97 0.2 E 20 28 11 15 - - 0.0
21/09:00pm 7.2 2.9 6.8 97 0.2 E 19 28 10 15 - - 0.0
21/08:30pm 7.4 3.9 7.1 98 0.1 E 15 22 8 12 - - 0.0
21/08:00pm 7.5 4.0 7.1 97 0.2 E 15 24 8 13 - - 0.0
21/07:30pm 7.6 3.3 7.0 96 0.3 E 19 32 10 17 - - 0.0
21/07:00pm 7.9 4.0 7.1 95 0.4 E 17 24 9 13 - - 0.0
21/06:30pm 8.1 4.2 7.3 95 0.4 E 17 26 9 14 - - 0.0
21/06:00pm 8.6 5.5 7.4 92 0.6 ESE 13 19 7 10 - - 0.0
21/05:30pm 8.6 5.9 7.4 92 0.6 ESE 11 20 6 11 - - 0.0
21/05:00pm 8.6 5.2 7.5 93 0.6 E 15 22 8 12 - - 0.0
21/04:30pm 9.2 5.8 7.6 90 0.8 E 15 24 8 13 - - 0.0
21/04:00pm 8.8 5.8 7.7 93 0.6 E 13 22 7 12 - - 0.0
21/03:30pm 8.5 5.5 7.9 96 0.3 ESE 13 20 7 11 - - 0.0
21/03:00pm 10.0 6.7 7.9 87 1.1 E 15 24 8 13 - - 0.0
21/02:30pm 9.8 6.4 7.7 87 1.1 E 15 24 8 13 - - 0.0
21/02:00pm 9.8 6.5 8.1 89 0.9 E 15 22 8 12 - - 0.0
21/01:30pm 9.3 6.0 7.9 91 0.7 E 15 24 8 13 - - 0.0
21/01:00pm 8.3 4.5 7.5 95 0.4 E 17 28 9 15 - - 0.0
21/12:30pm 8.5 5.0 7.3 92 0.6 E 15 24 8 13 - - 0.0
21/12:00pm - - - - - E 15 22 8 12 - - 0.0
21/11:30am - - - - - E 17 24 9 13 - - 0.0
21/11:00am - - - - - E 17 30 9 16 - - 0.0
21/10:30am - - - - - E 19 33 10 18 - - 0.0
21/10:00am - - - - - E 20 32 11 17 - - 0.0
21/09:30am - - - - - E 15 30 8 16 - - 0.0
21/09:00am - - - - - E 17 24 9 13 - - 1.4
21/08:30am - - - - - E 17 26 9 14 - - 1.0
21/08:00am - - - - - E 19 32 10 17 - - 0.8
21/07:30am - - - - - E 24 37 13 20 - - 0.8
21/07:00am - - - - - E 24 33 13 18 - - 0.8
21/06:30am - - - - - E 26 39 14 21 - - 0.8
21/06:00am - - - - - E 26 39 14 21 - - 0.6
21/05:30am 7.1 2.2 7.1 100 0.0 E 22 33 12 18 - - 0.6
21/05:00am 7.2 1.6 7.2 100 0.0 E 26 37 14 20 - - 0.6
21/04:30am 7.3 1.7 7.3 100 0.0 E 26 39 14 21 - - 0.6
21/04:00am 7.4 1.5 7.4 100 0.0 E 28 41 15 22 - - 0.6
21/03:30am 7.5 1.6 7.5 100 0.0 E 28 35 15 19 - - 0.6
21/03:00am 7.6 1.7 7.6 100 0.0 E 28 37 15 20 - - 0.4
21/02:30am 7.7 2.2 7.7 100 0.0 E 26 37 14 20 - - 0.4
21/02:00am 7.7 1.8 7.7 100 0.0 E 28 44 15 24 - - 0.2
21/01:30am 7.7 1.8 7.7 100 0.0 E 28 37 15 20 - - 0.2
21/01:00am 7.7 1.1 7.7 100 0.0 E 32 44 17 24 - - 0.2
21/12:30am 7.8 2.0 7.8 100 0.0 E 28 41 15 22 - - 0.2
21/12:00am 7.8 2.4 7.8 100 0.0 E 26 37 14 20 - - 0.2
 
Date/Time
EDT
Temp
°C
App
Temp
°C
Dew
Point
Rel
Hum
%
Delta-T
°C
Wind Press
QNH
hPa
Press
MSL
hPa
Rain
since 9 am
mm
Dir
 
Spd
km/h
Gust
km/h
Spd
kts
Gust
kts
20/11:30pm 7.8 2.0 7.8 100 0.0 E 28 39 15 21 - - 0.2
20/11:00pm 7.7 1.5 7.7 100 0.0 E 30 46 16 25 - - 0.2
20/10:30pm 7.8 1.2 7.8 100 0.0 E 32 43 17 23 - - 0.0
20/10:00pm 8.2 1.7 8.2 100 0.0 E 32 44 17 24 - - 0.0
20/09:30pm 8.7 2.7 8.7 100 0.0 E 30 44 16 24 - - 0.0
20/09:17pm 8.7 2.7 8.7 100 0.0 E 30 48 16 26 - - 0.0
20/09:00pm 8.8 2.5 8.8 100 0.0 E 32 46 17 25 - - 0.0
20/08:30pm 9.0 3.4 8.9 99 0.1 E 28 39 15 21 - - 0.0
20/08:01pm 9.4 3.8 8.8 96 0.3 E 28 48 15 26 - - 0.0
20/08:00pm 9.4 3.4 8.8 96 0.3 E 30 48 16 26 - - 0.0
20/07:56pm 9.5 3.9 8.9 96 0.3 E 28 48 15 26 - - 0.0
20/07:30pm 9.6 3.9 8.4 92 0.6 E 28 39 15 21 - - 0.0
20/07:00pm 10.0 4.6 8.1 88 1.0 E 26 43 14 23 - - 0.0
20/06:30pm 10.4 5.8 8.2 86 1.1 E 22 35 12 19 - - 0.0
20/06:00pm 10.6 5.6 8.0 84 1.3 E 24 37 13 20 - - 0.0
20/05:30pm 11.1 5.8 8.3 83 1.5 E 26 37 14 20 - - 0.0
20/05:00pm 12.1 7.7 8.8 80 1.8 E 22 33 12 18 - - 0.0
20/04:30pm 12.3 8.5 9.1 81 1.7 ESE 19 26 10 14 - - 0.0
20/04:00pm 13.0 9.3 9.4 79 1.9 E 19 28 10 15 - - 0.0
20/03:30pm 12.9 9.2 9.5 80 1.8 ESE 19 32 10 17 - - 0.0
20/03:00pm 13.9 10.3 9.9 77 2.2 E 19 28 10 15 - - 0.0
20/02:30pm 13.7 10.2 10.1 79 2.0 E 19 28 10 15 - - 0.0
20/02:00pm 13.2 9.6 9.8 80 1.9 ESE 19 28 10 15 - - 0.0
20/01:30pm 13.2 8.9 9.5 78 2.0 E 22 30 12 16 - - 0.0
20/01:00pm 13.1 9.5 9.9 81 1.7 ESE 19 28 10 15 - - 0.0
20/12:30pm 13.5 9.7 9.9 79 2.0 ESE 20 33 11 18 - - 0.0
20/12:00pm 13.5 9.8 10.3 81 1.8 E 20 32 11 17 - - 0.0
20/11:30am 13.6 10.5 10.4 81 1.8 E 17 26 9 14 - - 0.0
20/11:00am 14.2 11.2 10.6 79 2.0 E 17 24 9 13 - - 0.0
20/10:30am 14.9 12.2 10.5 75 2.5 ESE 15 24 8 13 - - 0.0
20/10:00am 15.8 12.4 9.2 65 3.6 ESE 17 22 9 12 - - 0.0
20/09:30am 16.9 13.5 7.8 55 4.9 ESE 15 22 8 12 - - 0.0
20/09:00am 17.9 14.1 5.8 45 6.3 E 15 24 8 13 - - 0.0
20/08:30am 18.4 14.4 4.9 41 6.9 SSE 15 24 8 13 - - 0.0
20/08:00am 18.7 15.8 4.5 39 7.2 S 9 17 5 9 - - 0.0
20/07:30am 17.7 14.7 4.3 41 6.7 S 9 15 5 8 - - 0.0
20/07:00am 16.2 13.3 4.6 46 5.8 SSE 9 13 5 7 - - 0.0
20/06:30am 15.9 13.3 4.0 45 5.9 S 7 9 4 5 - - 0.0
20/06:00am 15.9 13.4 4.6 47 5.6 SSW 7 11 4 6 - - 0.0
20/05:30am 15.7 13.3 5.3 50 5.3 SSW 7 11 4 6 - - 0.0
20/05:00am 15.4 13.3 5.9 53 4.9 SSW 6 9 3 5 - - 0.0
20/04:30am 15.3 13.3 6.3 55 4.6 SW 6 13 3 7 - - 0.0
20/04:00am 15.4 13.4 6.4 55 4.6 WSW 6 9 3 5 - - 0.0
20/03:30am 15.2 13.3 6.5 56 4.5 WSW 6 9 3 5 - - 0.0
20/03:00am 15.1 13.1 6.4 56 4.5 WSW 6 7 3 4 - - 0.0
20/02:30am 14.9 13.0 6.7 58 4.2 SW 6 9 3 5 - - 0.0
20/02:00am 15.3 13.3 7.1 58 4.3 SW 7 11 4 6 - - 0.0
20/01:30am 15.3 13.3 7.3 59 4.2 WSW 7 11 4 6 - - 0.0
20/01:00am 15.2 13.3 6.5 56 4.5 WSW 6 9 3 5 - - 0.0
20/12:30am 15.2 13.1 5.7 53 4.8 WSW 6 9 3 5 - - 0.0
20/12:00am 15.6 13.3 4.6 48 5.5 W 6 9 3 5 - - 0.0
 
Date/Time
EDT
Temp
°C
App
Temp
°C
Dew
Point
Rel
Hum
%
Delta-T
°C
Wind Press
QNH
hPa
Press
MSL
hPa
Rain
since 9 am
mm
Dir
 
Spd
km/h
Gust
km/h
Spd
kts
Gust
kts
19/11:30pm 15.8 13.3 3.9 45 5.9 W 6 9 3 5 - - 0.0
19/11:00pm 15.5 13.5 4.3 47 5.5 WNW 4 6 2 3 - - 0.0
19/10:30pm 15.8 13.6 3.6 44 6.0 WNW 4 7 2 4 - - 0.0
19/10:00pm 16.0 13.8 3.4 43 6.1 NNW 4 6 2 3 - - 0.0
19/09:30pm 14.5 12.3 3.6 48 5.3 N 4 6 2 3 - - 0.0
19/09:00pm 14.6 13.0 4.6 51 5.0 N 2 4 1 2 - - 0.0
19/08:30pm 15.1 13.9 4.5 49 5.3 CALM 0 0 0 0 - - 0.0
19/08:00pm 15.1 13.9 4.5 49 5.3 CALM 0 0 0 0 - - 0.0
19/07:30pm 15.1 13.8 5.9 54 4.7 SSW 2 4 1 2 - - 0.0

Other Formats:

Comma delimited format used in spreadsheet applications
http://www.bom.gov.au/fwo/IDN60801/IDN60801.94754.axf

JavaScript Object Notation format (JSON) in row-major order
http://www.bom.gov.au/fwo/IDN60801/IDN60801.94754.json